Terminal Aerodrome Forecast
Issued by NWS

Home | Current Version | Previous Version | Text Only | Print | Product List | Glossary On
Versions: 1 2 3 4 5 6 7 8 9 10 11 12 13 14
000
FTUS45 KREV 281700
TAFMMH
TAF
KMMH 281720Z 2818/0118 25009KT P6SM VCSH FEW030 BKN050
     FM282300 28008KT 3SM -SHSN SCT015 BKN025
     FM010300 32005KT 1SM -SN SCT005 OVC012
     FM011200 01006KT 4SM -SHSN SCT010 BKN020=

USA.gov is the U.S. government's official web portal to all federal, state and local government web resources and services.